createdAt,value
2023-03-29T00:00:34.315Z,5.40
2023-03-29T00:03:16.407Z,3.90
2023-03-29T00:05:45.032Z,4.90
2023-03-29T00:08:14.855Z,4.90
2023-03-29T00:10:43.108Z,6.50
2023-03-29T00:13:11.762Z,3.70
2023-03-29T00:15:41.724Z,5.00
2023-03-29T00:18:09.809Z,4.70
2023-03-29T00:20:37.851Z,4.10
2023-03-29T00:23:06.337Z,6.30
2023-03-29T00:25:34.665Z,4.80
2023-03-29T00:28:02.771Z,4.80
2023-03-29T00:30:30.692Z,5.00
2023-03-29T00:32:58.740Z,5.50
2023-03-29T00:35:27.214Z,4.60
2023-03-29T00:37:55.390Z,4.60
2023-03-29T00:40:23.758Z,4.10
2023-03-29T00:42:51.779Z,4.00
2023-03-29T00:45:25.253Z,4.10
2023-03-29T00:48:00.253Z,5.00
2023-03-29T00:53:16.620Z,5.30
2023-03-29T00:55:55.032Z,5.10
2023-03-29T00:58:29.759Z,5.20
2023-03-29T01:01:02.468Z,4.60
2023-03-29T01:03:41.518Z,5.00
2023-03-29T01:06:11.530Z,7.20
2023-03-29T01:08:54.796Z,4.60
2023-03-29T01:11:28.452Z,6.20
2023-03-29T01:14:06.894Z,3.60
2023-03-29T01:19:10.436Z,5.80
2023-03-29T01:22:13.593Z,5.30
2023-03-29T01:25:00.400Z,5.00
2023-03-29T01:27:40.696Z,5.80
2023-03-29T01:30:14.938Z,4.70
2023-03-29T01:32:52.962Z,5.20
2023-03-29T01:35:32.731Z,4.90
2023-03-29T01:38:13.431Z,5.00
2023-03-29T01:40:42.211Z,5.80
2023-03-29T01:43:26.757Z,6.70
2023-03-29T01:46:07.537Z,5.30
2023-03-29T01:48:53.942Z,4.40
2023-03-29T01:51:30.640Z,6.20
2023-03-29T01:54:08.388Z,5.50
2023-03-29T01:56:40.700Z,7.00
2023-03-29T01:59:14.717Z,6.40
2023-03-29T02:01:49.594Z,5.30
2023-03-29T02:06:54.865Z,4.50
2023-03-29T02:09:23.527Z,5.80
2023-03-29T02:11:53.230Z,8.40
2023-03-29T02:14:22.273Z,4.30
2023-03-29T02:16:50.293Z,4.70
2023-03-29T02:19:19.937Z,6.10
2023-03-29T02:21:56.859Z,5.50
2023-03-29T02:24:26.365Z,5.30
2023-03-29T02:26:54.641Z,5.20
2023-03-29T02:29:22.611Z,4.80
2023-03-29T02:31:58.686Z,5.90
2023-03-29T02:34:30.398Z,6.60
2023-03-29T02:37:08.511Z,5.20
2023-03-29T02:39:38.367Z,6.40
2023-03-29T02:42:07.527Z,5.10
2023-03-29T02:44:39.876Z,7.40
2023-03-29T02:47:17.428Z,7.00
2023-03-29T02:49:45.656Z,8.90
2023-03-29T02:52:23.838Z,5.70
2023-03-29T02:54:56.557Z,7.50
2023-03-29T02:57:28.762Z,6.20
2023-03-29T02:59:57.749Z,4.80
2023-03-29T03:02:26.038Z,5.60
2023-03-29T03:04:54.775Z,6.70
2023-03-29T03:07:23.083Z,7.10
2023-03-29T03:09:51.990Z,5.90
2023-03-29T03:12:20.101Z,4.90
2023-03-29T03:14:48.395Z,4.80
2023-03-29T03:17:18.969Z,4.80
2023-03-29T03:19:47.952Z,6.70
2023-03-29T03:22:15.924Z,5.90
2023-03-29T03:24:46.117Z,5.60
2023-03-29T03:27:14.278Z,5.80
2023-03-29T03:29:42.550Z,5.90
2023-03-29T03:32:13.569Z,6.00
2023-03-29T03:34:56.459Z,4.80
2023-03-29T03:37:27.576Z,6.10
2023-03-29T03:39:55.849Z,9.80
2023-03-29T03:42:24.382Z,6.50
2023-03-29T03:44:52.421Z,5.70
2023-03-29T03:47:41.218Z,7.20
2023-03-29T03:50:21.398Z,5.80
2023-03-29T03:52:49.976Z,5.40
2023-03-29T03:55:18.294Z,6.00
2023-03-29T03:58:09.452Z,6.20
2023-03-29T04:00:37.428Z,5.80
2023-03-29T04:03:19.909Z,5.90
2023-03-29T04:05:49.212Z,6.30
2023-03-29T04:08:18.032Z,6.10
2023-03-29T04:11:04.854Z,5.80
2023-03-29T04:13:37.984Z,6.30
2023-03-29T04:16:25.070Z,7.30
2023-03-29T04:18:53.500Z,8.00
2023-03-29T04:21:23.145Z,4.20
2023-03-29T04:23:52.090Z,8.10
2023-03-29T04:26:20.107Z,6.90
2023-03-29T04:28:57.168Z,5.50
2023-03-29T04:31:41.129Z,7.10
2023-03-29T04:34:44.430Z,6.70
2023-03-29T04:37:14.601Z,6.60
2023-03-29T04:39:44.838Z,9.50
2023-03-29T04:42:14.015Z,5.40
2023-03-29T04:44:43.833Z,8.10
2023-03-29T04:47:13.760Z,8.20
2023-03-29T04:49:44.650Z,11.20
2023-03-29T04:52:33.495Z,6.30
2023-03-29T04:55:05.497Z,8.70
2023-03-29T04:57:44.690Z,6.90
2023-03-29T05:00:33.549Z,9.40
2023-03-29T05:03:14.699Z,6.70
2023-03-29T05:05:54.727Z,5.00
2023-03-29T05:08:22.660Z,8.70
2023-03-29T05:13:40.116Z,11.00
2023-03-29T05:16:08.892Z,7.60
2023-03-29T05:18:38.039Z,7.20
2023-03-29T05:21:06.478Z,5.40
2023-03-29T05:23:37.896Z,5.60
2023-03-29T05:26:28.543Z,9.10
2023-03-29T05:28:57.344Z,9.30
2023-03-29T05:31:25.496Z,10.90
2023-03-29T05:33:55.964Z,16.30
2023-03-29T05:36:24.981Z,9.10
2023-03-29T05:38:53.393Z,8.00
2023-03-29T05:41:24.473Z,11.90
2023-03-29T05:44:04.815Z,13.50
2023-03-29T05:46:33.965Z,9.10
2023-03-29T05:49:04.364Z,11.00
2023-03-29T05:51:58.498Z,11.00
2023-03-29T05:54:27.430Z,8.80
2023-03-29T05:56:55.975Z,9.80
2023-03-29T05:59:24.595Z,9.10
2023-03-29T06:01:53.227Z,8.60
2023-03-29T06:04:23.208Z,9.50
2023-03-29T06:07:24.564Z,10.90
2023-03-29T06:10:13.025Z,10.00
2023-03-29T06:12:45.067Z,6.00
2023-03-29T06:15:14.252Z,9.70
2023-03-29T06:17:50.102Z,10.80
2023-03-29T06:20:18.747Z,8.60
2023-03-29T06:22:51.099Z,9.00
2023-03-29T06:25:19.920Z,9.70
2023-03-29T06:27:50.122Z,11.90
2023-03-29T06:30:19.698Z,15.90
2023-03-29T06:32:52.011Z,13.60
2023-03-29T06:35:46.040Z,11.20
2023-03-29T06:38:17.201Z,16.30
2023-03-29T06:41:12.946Z,4.80
2023-03-29T06:43:59.757Z,7.90
2023-03-29T06:46:33.893Z,9.90
2023-03-29T06:49:06.532Z,6.70
2023-03-29T06:51:49.204Z,8.00
2023-03-29T06:54:17.220Z,9.10
2023-03-29T06:56:52.666Z,7.40
2023-03-29T06:59:23.217Z,7.70
2023-03-29T07:01:59.777Z,8.10
2023-03-29T07:04:41.860Z,9.70
2023-03-29T07:07:20.528Z,5.70
2023-03-29T07:09:54.217Z,6.50
2023-03-29T07:12:41.631Z,8.70
2023-03-29T07:15:11.382Z,4.80
2023-03-29T07:17:58.330Z,6.80
2023-03-29T07:20:27.279Z,6.20
2023-03-29T07:23:09.327Z,8.20
2023-03-29T07:25:38.455Z,7.10
2023-03-29T07:28:07.494Z,6.40
2023-03-29T07:30:35.682Z,9.00
2023-03-29T07:33:16.325Z,7.50
2023-03-29T07:35:55.374Z,17.80
2023-03-29T07:38:24.048Z,6.50
2023-03-29T07:41:08.132Z,6.00
2023-03-29T07:44:04.378Z,9.20
2023-03-29T07:46:32.769Z,7.20
2023-03-29T07:49:00.977Z,4.90
2023-03-29T07:51:30.039Z,4.00
2023-03-29T07:54:06.612Z,7.60
2023-03-29T07:56:47.805Z,9.40
2023-03-29T07:59:38.030Z,5.60
2023-03-29T08:02:17.267Z,7.90
2023-03-29T08:04:48.526Z,6.70
2023-03-29T08:07:20.166Z,7.90
2023-03-29T08:10:00.320Z,10.30
2023-03-29T08:12:48.430Z,9.90
2023-03-29T08:15:18.191Z,9.10
2023-03-29T08:17:50.630Z,7.70
2023-03-29T08:20:19.624Z,9.80
2023-03-29T08:22:49.758Z,7.40
2023-03-29T08:25:54.138Z,9.20
2023-03-29T08:28:22.947Z,7.50
2023-03-29T08:30:53.004Z,6.20
2023-03-29T08:33:21.510Z,4.70
2023-03-29T08:35:57.840Z,14.20
2023-03-29T08:38:29.757Z,6.80
2023-03-29T08:40:57.944Z,8.90
2023-03-29T08:43:43.533Z,9.00
2023-03-29T08:46:21.700Z,8.50
2023-03-29T08:48:59.733Z,5.60
2023-03-29T08:51:33.028Z,9.80
2023-03-29T08:54:08.060Z,9.20
2023-03-29T08:57:13.470Z,6.20
2023-03-29T08:59:45.725Z,4.50
2023-03-29T09:02:25.064Z,5.20
2023-03-29T09:05:06.264Z,10.50
2023-03-29T09:07:45.475Z,6.40
2023-03-29T09:13:27.768Z,5.00
2023-03-29T09:16:20.954Z,4.70
2023-03-29T09:18:56.256Z,7.70
2023-03-29T09:21:29.344Z,5.80
2023-03-29T09:24:04.085Z,3.50
2023-03-29T09:27:13.700Z,10.30
2023-03-29T09:29:59.527Z,8.90
2023-03-29T09:33:01.051Z,6.10
2023-03-29T09:35:52.320Z,7.40
2023-03-29T09:38:22.996Z,5.50
2023-03-29T09:40:57.359Z,7.70
2023-03-29T09:43:32.500Z,8.70
2023-03-29T09:46:16.427Z,5.10
2023-03-29T09:48:50.207Z,5.80
2023-03-29T09:51:23.034Z,5.80
2023-03-29T09:53:51.681Z,4.40
2023-03-29T09:56:39.584Z,11.30
2023-03-29T09:59:16.335Z,5.60
2023-03-29T10:01:48.729Z,5.40
2023-03-29T10:04:17.615Z,4.40
2023-03-29T10:06:52.723Z,6.50
2023-03-29T10:09:24.899Z,9.30
2023-03-29T10:12:02.427Z,5.50
2023-03-29T10:14:42.617Z,5.60
2023-03-29T10:17:19.970Z,9.00
2023-03-29T10:19:51.242Z,8.00
2023-03-29T10:22:38.152Z,6.10
2023-03-29T10:25:15.372Z,5.80
2023-03-29T10:27:48.220Z,4.20
2023-03-29T10:30:24.993Z,7.10
2023-03-29T10:32:59.826Z,7.00
2023-03-29T10:35:33.710Z,5.10
2023-03-29T10:38:06.618Z,7.40
2023-03-29T10:40:42.302Z,16.60
2023-03-29T10:43:25.330Z,6.50
2023-03-29T10:46:11.016Z,5.40
2023-03-29T10:48:46.052Z,3.30
2023-03-29T10:51:15.503Z,5.30
2023-03-29T10:53:43.657Z,7.40
2023-03-29T10:56:33.028Z,4.90
2023-03-29T10:59:20.091Z,4.30
2023-03-29T11:02:19.126Z,4.00
2023-03-29T11:07:32.146Z,5.50
2023-03-29T11:10:12.773Z,7.60
2023-03-29T11:13:25.291Z,6.80
2023-03-29T11:16:25.718Z,4.00
2023-03-29T11:19:25.724Z,6.00
2023-03-29T11:21:57.694Z,3.20
2023-03-29T11:25:08.683Z,4.70
2023-03-29T11:27:49.084Z,4.10
2023-03-29T11:30:31.838Z,2.90
2023-03-29T11:33:18.680Z,5.60
2023-03-29T11:36:18.232Z,3.70
2023-03-29T11:39:22.102Z,3.30
2023-03-29T11:41:56.320Z,4.40
2023-03-29T11:44:29.876Z,6.00
2023-03-29T11:47:29.030Z,9.30
2023-03-29T11:50:03.392Z,3.90
2023-03-29T11:52:43.743Z,3.40
2023-03-29T11:55:22.616Z,3.60
2023-03-29T11:58:06.906Z,7.20
2023-03-29T12:00:45.164Z,3.00
2023-03-29T12:03:32.485Z,6.00
2023-03-29T12:06:08.185Z,3.80
2023-03-29T12:08:49.071Z,8.20
2023-03-29T12:11:49.588Z,4.80
2023-03-29T12:14:27.897Z,2.70
2023-03-29T12:17:02.753Z,2.80
2023-03-29T12:20:00.990Z,4.80
2023-03-29T12:22:29.934Z,6.20
2023-03-29T12:25:00.093Z,5.10
2023-03-29T12:27:34.518Z,3.50
2023-03-29T12:30:11.002Z,3.50
2023-03-29T12:33:15.889Z,3.60
2023-03-29T12:36:11.512Z,10.40
2023-03-29T12:39:16.474Z,4.70
2023-03-29T12:42:21.301Z,4.50
2023-03-29T12:45:32.619Z,4.40
2023-03-29T12:48:01.814Z,2.90
2023-03-29T12:50:36.034Z,3.50
2023-03-29T12:53:23.028Z,3.10
2023-03-29T12:56:08.784Z,3.60
2023-03-29T12:58:40.728Z,4.70
2023-03-29T13:01:37.878Z,2.80
2023-03-29T13:04:22.674Z,2.70
2023-03-29T13:07:05.052Z,4.70
2023-03-29T13:09:53.023Z,4.00
2023-03-29T13:12:27.227Z,3.60
2023-03-29T13:15:16.915Z,3.80
2023-03-29T13:18:15.559Z,3.80
2023-03-29T13:20:44.386Z,5.40
2023-03-29T13:23:33.803Z,3.40
2023-03-29T13:26:21.502Z,5.50
2023-03-29T13:29:13.100Z,4.80
2023-03-29T13:31:54.046Z,6.30
2023-03-29T13:34:40.421Z,3.30
2023-03-29T13:37:28.077Z,4.50
2023-03-29T13:39:57.878Z,3.00
2023-03-29T13:42:36.272Z,7.80
2023-03-29T13:45:27.419Z,5.90
2023-03-29T13:48:29.770Z,4.10
2023-03-29T13:51:08.779Z,3.70
2023-03-29T13:53:49.941Z,4.30
2023-03-29T13:56:58.157Z,4.80
2023-03-29T13:59:42.620Z,2.50
2023-03-29T14:02:37.859Z,4.90
2023-03-29T14:05:14.267Z,5.90
2023-03-29T14:07:50.361Z,4.70
2023-03-29T14:10:27.485Z,6.80
2023-03-29T14:12:57.665Z,6.30
2023-03-29T14:15:39.113Z,4.30
2023-03-29T14:18:12.254Z,3.50
2023-03-29T14:20:44.064Z,7.30
2023-03-29T14:23:20.194Z,3.90
2023-03-29T14:25:48.507Z,6.50
2023-03-29T14:28:23.454Z,4.70
2023-03-29T14:30:52.926Z,3.90
2023-03-29T14:33:38.060Z,4.00
2023-03-29T14:36:07.009Z,7.00
2023-03-29T14:38:58.605Z,3.00
2023-03-29T14:41:32.174Z,3.60
2023-03-29T14:44:03.033Z,3.60
2023-03-29T14:46:34.030Z,2.90
2023-03-29T14:49:02.619Z,6.30
2023-03-29T14:51:31.471Z,2.90
2023-03-29T14:54:03.154Z,3.80
2023-03-29T14:56:33.161Z,3.00
2023-03-29T14:59:05.074Z,2.80
2023-03-29T15:01:44.723Z,3.80
2023-03-29T15:04:13.144Z,5.50
2023-03-29T15:06:45.382Z,4.60
2023-03-29T15:09:18.601Z,3.60
2023-03-29T15:12:06.812Z,2.50
2023-03-29T15:14:38.522Z,5.70
2023-03-29T15:17:43.050Z,5.60
2023-03-29T15:20:25.840Z,4.30
2023-03-29T15:22:56.394Z,3.70
2023-03-29T15:25:29.954Z,4.60
2023-03-29T15:28:00.244Z,4.60
2023-03-29T15:30:46.208Z,3.00
2023-03-29T15:33:24.270Z,4.80
2023-03-29T15:35:53.871Z,5.80
2023-03-29T15:38:27.680Z,3.50
2023-03-29T15:41:01.741Z,5.80
2023-03-29T15:43:31.225Z,5.10
2023-03-29T15:46:00.154Z,3.30
2023-03-29T15:48:30.027Z,6.70
2023-03-29T15:51:02.016Z,3.80
2023-03-29T15:53:32.007Z,5.20
2023-03-29T15:56:05.526Z,3.80
2023-03-29T15:58:35.728Z,3.40
2023-03-29T16:01:33.608Z,4.80
2023-03-29T16:04:06.855Z,5.00
2023-03-29T16:06:35.035Z,3.30
2023-03-29T16:09:05.237Z,4.90
2023-03-29T16:11:33.945Z,5.40
2023-03-29T16:14:02.888Z,4.30
2023-03-29T16:16:31.134Z,3.10
2023-03-29T16:18:59.226Z,7.70
2023-03-29T16:21:27.269Z,5.00
2023-03-29T16:23:55.413Z,7.30
2023-03-29T16:26:26.268Z,5.80
2023-03-29T16:28:54.511Z,5.40
2023-03-29T16:31:24.894Z,5.80
2023-03-29T16:33:53.857Z,6.70
2023-03-29T16:36:22.890Z,6.10
2023-03-29T16:38:52.814Z,5.60
2023-03-29T16:41:21.572Z,5.90
2023-03-29T16:43:52.749Z,5.30
2023-03-29T16:46:21.573Z,10.30
2023-03-29T16:48:51.621Z,16.90
2023-03-29T16:51:21.883Z,8.20
2023-03-29T16:53:51.556Z,8.70
2023-03-29T16:56:19.903Z,7.20
2023-03-29T16:58:48.905Z,6.00
2023-03-29T17:01:17.316Z,7.00
2023-03-29T17:03:48.184Z,8.90
2023-03-29T17:06:18.596Z,5.60
2023-03-29T17:08:46.938Z,9.50
2023-03-29T17:11:16.118Z,6.80
2023-03-29T17:13:45.130Z,8.80
2023-03-29T17:16:13.495Z,13.70
2023-03-29T17:18:44.943Z,8.20
2023-03-29T17:21:13.136Z,7.00
2023-03-29T17:23:42.041Z,9.40
2023-03-29T17:26:12.043Z,8.70
2023-03-29T17:28:40.316Z,9.60
2023-03-29T17:31:09.358Z,8.60
2023-03-29T17:33:37.673Z,7.00
2023-03-29T17:36:06.818Z,7.30
2023-03-29T17:38:36.158Z,7.50
2023-03-29T17:41:04.649Z,7.80
2023-03-29T17:43:33.113Z,8.50
2023-03-29T17:46:01.513Z,7.70
2023-03-29T17:48:30.078Z,8.60
2023-03-29T17:50:58.189Z,10.10
2023-03-29T17:53:28.085Z,9.30
2023-03-29T17:55:56.366Z,6.70
2023-03-29T17:58:24.654Z,7.20
2023-03-29T18:00:52.804Z,6.60
2023-03-29T18:03:23.007Z,8.80
2023-03-29T18:05:51.336Z,6.80
2023-03-29T18:08:23.238Z,6.10
2023-03-29T18:10:51.805Z,9.20
2023-03-29T18:13:26.233Z,6.50
2023-03-29T18:15:56.845Z,9.00
2023-03-29T18:18:25.378Z,15.70
2023-03-29T18:20:53.542Z,11.00
2023-03-29T18:23:22.710Z,7.60
2023-03-29T18:25:51.195Z,8.00
2023-03-29T18:28:22.080Z,8.50
2023-03-29T18:30:52.788Z,8.40
2023-03-29T18:33:23.541Z,10.50
2023-03-29T18:35:52.986Z,10.20
2023-03-29T18:38:22.782Z,10.70
2023-03-29T18:40:51.624Z,10.80
2023-03-29T18:43:19.654Z,12.60
2023-03-29T18:45:47.845Z,15.10
2023-03-29T18:48:16.142Z,11.00
2023-03-29T18:50:46.996Z,9.10
2023-03-29T18:53:15.363Z,9.20
2023-03-29T18:55:45.177Z,9.70
2023-03-29T18:58:15.185Z,8.90
2023-03-29T19:00:44.251Z,9.80
2023-03-29T19:03:14.149Z,10.20
2023-03-29T19:05:42.463Z,8.20
2023-03-29T19:08:11.219Z,7.50
2023-03-29T19:10:39.503Z,10.50
2023-03-29T19:13:07.530Z,9.20
2023-03-29T19:15:35.876Z,11.50
2023-03-29T19:18:03.990Z,10.60
2023-03-29T19:20:32.486Z,13.90
2023-03-29T19:23:06.311Z,13.70
2023-03-29T19:25:37.291Z,12.30
2023-03-29T19:28:06.265Z,10.80
2023-03-29T19:30:36.024Z,11.40
2023-03-29T19:33:04.110Z,10.40
2023-03-29T19:35:34.853Z,13.50
2023-03-29T19:38:03.270Z,14.40
2023-03-29T19:40:31.402Z,14.60
2023-03-29T19:43:01.838Z,15.10
2023-03-29T19:45:30.515Z,14.90
2023-03-29T19:48:03.027Z,13.90
2023-03-29T19:50:32.080Z,15.00
2023-03-29T19:53:00.929Z,27.60
2023-03-29T19:55:29.503Z,17.80
2023-03-29T19:57:57.817Z,16.00
2023-03-29T20:00:26.227Z,16.20
2023-03-29T20:02:56.732Z,18.90
2023-03-29T20:05:25.214Z,14.50
2023-03-29T20:07:54.442Z,17.40
2023-03-29T20:10:22.430Z,17.10
2023-03-29T20:12:51.076Z,17.00
2023-03-29T20:15:19.267Z,17.10
2023-03-29T20:17:47.474Z,19.50
2023-03-29T20:20:15.607Z,13.80
2023-03-29T20:22:45.457Z,15.50
2023-03-29T20:25:14.025Z,19.10
2023-03-29T20:27:42.844Z,15.60
2023-03-29T20:30:11.773Z,13.80
2023-03-29T20:32:39.736Z,11.60
2023-03-29T20:35:08.037Z,16.00
2023-03-29T20:37:36.352Z,14.60
2023-03-29T20:40:05.609Z,15.00
2023-03-29T20:42:34.693Z,16.10
2023-03-29T20:45:03.414Z,14.70
2023-03-29T20:47:31.584Z,12.80
2023-03-29T20:50:01.599Z,13.50
2023-03-29T20:52:29.700Z,14.60
2023-03-29T20:54:59.273Z,13.40
2023-03-29T20:57:29.951Z,17.60
2023-03-29T20:59:59.204Z,19.00
2023-03-29T21:02:27.549Z,18.20
2023-03-29T21:05:00.526Z,17.90
2023-03-29T21:07:28.700Z,18.70
2023-03-29T21:09:56.780Z,17.40
2023-03-29T21:12:25.693Z,19.70
2023-03-29T21:14:53.706Z,23.60
2023-03-29T21:17:21.772Z,26.30
2023-03-29T21:19:49.801Z,37.60
2023-03-29T21:22:18.362Z,30.10
2023-03-29T21:24:46.353Z,36.80
2023-03-29T21:27:14.393Z,32.10
2023-03-29T21:29:42.345Z,38.60
2023-03-29T21:32:11.184Z,30.00
2023-03-29T21:34:41.544Z,32.80
2023-03-29T21:37:09.571Z,26.60
2023-03-29T21:39:37.630Z,32.30
2023-03-29T21:42:06.212Z,29.00
2023-03-29T21:44:34.520Z,27.60
2023-03-29T21:47:06.909Z,22.40
2023-03-29T21:49:35.394Z,23.90
2023-03-29T21:52:03.546Z,24.00
2023-03-29T21:54:31.960Z,22.80
2023-03-29T21:57:01.457Z,23.50
2023-03-29T21:59:29.514Z,23.20
2023-03-29T22:01:57.763Z,27.70
2023-03-29T22:04:35.700Z,28.10
2023-03-29T22:07:05.810Z,25.50
2023-03-29T22:09:37.818Z,30.20
2023-03-29T22:12:06.058Z,32.20
2023-03-29T22:14:37.352Z,27.10
2023-03-29T22:17:06.287Z,30.30
2023-03-29T22:19:41.802Z,27.80
2023-03-29T22:22:14.003Z,29.00
2023-03-29T22:24:42.501Z,24.80
2023-03-29T22:27:11.730Z,26.40
2023-03-29T22:29:39.914Z,24.00
2023-03-29T22:32:07.868Z,23.70
2023-03-29T22:34:36.898Z,24.80
2023-03-29T22:37:05.396Z,23.70
2023-03-29T22:39:36.910Z,24.60
2023-03-29T22:42:04.989Z,29.90
2023-03-29T22:44:34.001Z,24.70
2023-03-29T22:47:02.453Z,29.40
2023-03-29T22:49:30.556Z,26.10
2023-03-29T22:51:59.711Z,28.20
2023-03-29T22:54:28.871Z,28.40
2023-03-29T22:56:58.305Z,27.40
2023-03-29T22:59:26.990Z,28.60
2023-03-29T23:01:55.029Z,29.90
2023-03-29T23:04:23.534Z,30.80
2023-03-29T23:06:51.672Z,28.60
2023-03-29T23:09:19.842Z,35.80
2023-03-29T23:11:47.827Z,34.50
2023-03-29T23:14:15.756Z,34.50
2023-03-29T23:16:43.933Z,31.00
2023-03-29T23:19:11.996Z,27.30
2023-03-29T23:21:40.599Z,29.20
2023-03-29T23:24:08.642Z,32.90
2023-03-29T23:26:37.700Z,34.30
2023-03-29T23:29:05.654Z,31.30
2023-03-29T23:31:34.081Z,30.60
2023-03-29T23:34:03.208Z,29.20
2023-03-29T23:36:31.693Z,26.00
2023-03-29T23:38:59.827Z,34.20
2023-03-29T23:41:28.382Z,37.80
2023-03-29T23:43:58.139Z,42.30
2023-03-29T23:46:26.248Z,34.10
2023-03-29T23:48:54.249Z,43.60
2023-03-29T23:51:23.356Z,42.00
2023-03-29T23:53:51.868Z,36.80
2023-03-29T23:56:21.696Z,34.30
2023-03-29T23:58:49.979Z,38.20
